sensor_id;sensor_type;location;lat;lon;timestamp;P1;durP1;ratioP1;P2;durP2;ratioP2
44102;SDS011;29769;42.178;24.742;2023-03-09T00:02:16;12.30;;;7.15;;
44102;SDS011;29769;42.178;24.742;2023-03-09T00:05:00;14.65;;;7.65;;
44102;SDS011;29769;42.178;24.742;2023-03-09T00:07:46;16.83;;;9.82;;
44102;SDS011;29769;42.178;24.742;2023-03-09T00:10:31;19.15;;;8.30;;
44102;SDS011;29769;42.178;24.742;2023-03-09T00:13:16;16.30;;;7.93;;
44102;SDS011;29769;42.178;24.742;2023-03-09T00:16:11;18.35;;;8.25;;
44102;SDS011;29769;42.178;24.742;2023-03-09T00:18:56;12.73;;;8.13;;
44102;SDS011;29769;42.178;24.742;2023-03-09T00:21:42;16.17;;;7.07;;
44102;SDS011;29769;42.178;24.742;2023-03-09T00:24:32;11.43;;;6.80;;
44102;SDS011;29769;42.178;24.742;2023-03-09T00:27:17;8.07;;;5.80;;
44102;SDS011;29769;42.178;24.742;2023-03-09T00:30:04;9.15;;;5.45;;
44102;SDS011;29769;42.178;24.742;2023-03-09T00:32:50;11.35;;;5.88;;
44102;SDS011;29769;42.178;24.742;2023-03-09T00:35:36;9.43;;;6.05;;
44102;SDS011;29769;42.178;24.742;2023-03-09T00:38:22;12.55;;;6.22;;
44102;SDS011;29769;42.178;24.742;2023-03-09T00:41:06;11.90;;;5.78;;
44102;SDS011;29769;42.178;24.742;2023-03-09T00:43:51;11.32;;;5.75;;
44102;SDS011;29769;42.178;24.742;2023-03-09T00:46:36;10.20;;;6.03;;
44102;SDS011;29769;42.178;24.742;2023-03-09T00:49:21;6.13;;;4.70;;
44102;SDS011;29769;42.178;24.742;2023-03-09T00:52:06;10.32;;;6.07;;
44102;SDS011;29769;42.178;24.742;2023-03-09T00:54:51;6.97;;;5.03;;
44102;SDS011;29769;42.178;24.742;2023-03-09T00:57:38;10.68;;;5.43;;
44102;SDS011;29769;42.178;24.742;2023-03-09T01:00:23;8.32;;;5.45;;
44102;SDS011;29769;42.178;24.742;2023-03-09T01:03:08;10.88;;;5.15;;
44102;SDS011;29769;42.178;24.742;2023-03-09T01:05:52;12.60;;;5.68;;
44102;SDS011;29769;42.178;24.742;2023-03-09T01:08:39;7.40;;;5.07;;
44102;SDS011;29769;42.178;24.742;2023-03-09T01:14:09;10.82;;;5.80;;
44102;SDS011;29769;42.178;24.742;2023-03-09T01:16:56;9.45;;;5.10;;
44102;SDS011;29769;42.178;24.742;2023-03-09T01:22:26;8.60;;;5.88;;
44102;SDS011;29769;42.178;24.742;2023-03-09T01:25:11;9.70;;;4.85;;
44102;SDS011;29769;42.178;24.742;2023-03-09T01:27:56;10.82;;;5.50;;
44102;SDS011;29769;42.178;24.742;2023-03-09T01:30:40;10.02;;;5.25;;
44102;SDS011;29769;42.178;24.742;2023-03-09T01:33:25;9.65;;;4.75;;
44102;SDS011;29769;42.178;24.742;2023-03-09T01:36:12;8.43;;;4.65;;
44102;SDS011;29769;42.178;24.742;2023-03-09T01:38:58;7.53;;;4.95;;
44102;SDS011;29769;42.178;24.742;2023-03-09T01:41:44;8.05;;;4.53;;
44102;SDS011;29769;42.178;24.742;2023-03-09T01:44:30;6.38;;;4.18;;
44102;SDS011;29769;42.178;24.742;2023-03-09T01:47:16;5.70;;;4.03;;
44102;SDS011;29769;42.178;24.742;2023-03-09T01:50:01;7.20;;;4.60;;
44102;SDS011;29769;42.178;24.742;2023-03-09T01:52:49;12.63;;;5.18;;
44102;SDS011;29769;42.178;24.742;2023-03-09T01:55:39;10.38;;;4.22;;
44102;SDS011;29769;42.178;24.742;2023-03-09T01:58:29;8.48;;;4.10;;
44102;SDS011;29769;42.178;24.742;2023-03-09T02:01:16;7.72;;;4.78;;
44102;SDS011;29769;42.178;24.742;2023-03-09T02:06:49;6.45;;;4.45;;
44102;SDS011;29769;42.178;24.742;2023-03-09T02:09:39;6.40;;;3.85;;
44102;SDS011;29769;42.178;24.742;2023-03-09T02:12:28;8.23;;;4.78;;
44102;SDS011;29769;42.178;24.742;2023-03-09T02:15:13;7.97;;;4.88;;
44102;SDS011;29769;42.178;24.742;2023-03-09T02:17:58;9.35;;;5.22;;
44102;SDS011;29769;42.178;24.742;2023-03-09T02:26:52;7.60;;;4.55;;
44102;SDS011;29769;42.178;24.742;2023-03-09T02:29:41;6.72;;;4.65;;
44102;SDS011;29769;42.178;24.742;2023-03-09T02:32:28;7.25;;;4.82;;
44102;SDS011;29769;42.178;24.742;2023-03-09T02:35:14;6.55;;;4.75;;
44102;SDS011;29769;42.178;24.742;2023-03-09T02:38:08;6.47;;;4.60;;
44102;SDS011;29769;42.178;24.742;2023-03-09T02:40:59;6.90;;;4.25;;
44102;SDS011;29769;42.178;24.742;2023-03-09T02:43:47;6.15;;;4.53;;
44102;SDS011;29769;42.178;24.742;2023-03-09T02:46:35;6.63;;;4.53;;
44102;SDS011;29769;42.178;24.742;2023-03-09T02:49:20;6.85;;;4.45;;
44102;SDS011;29769;42.178;24.742;2023-03-09T02:52:06;7.53;;;4.25;;
44102;SDS011;29769;42.178;24.742;2023-03-09T02:54:51;7.72;;;4.80;;
44102;SDS011;29769;42.178;24.742;2023-03-09T02:57:36;5.95;;;4.43;;
44102;SDS011;29769;42.178;24.742;2023-03-09T03:00:21;8.82;;;5.15;;
44102;SDS011;29769;42.178;24.742;2023-03-09T03:03:08;9.48;;;5.07;;
44102;SDS011;29769;42.178;24.742;2023-03-09T03:05:54;7.53;;;5.30;;
44102;SDS011;29769;42.178;24.742;2023-03-09T03:11:28;8.27;;;5.53;;
44102;SDS011;29769;42.178;24.742;2023-03-09T03:14:13;13.70;;;6.97;;
44102;SDS011;29769;42.178;24.742;2023-03-09T03:16:58;8.57;;;6.70;;
44102;SDS011;29769;42.178;24.742;2023-03-09T03:19:43;8.40;;;6.47;;
44102;SDS011;29769;42.178;24.742;2023-03-09T03:22:29;13.65;;;6.75;;
44102;SDS011;29769;42.178;24.742;2023-03-09T03:25:14;17.23;;;6.95;;
44102;SDS011;29769;42.178;24.742;2023-03-09T03:28:03;12.13;;;6.70;;
44102;SDS011;29769;42.178;24.742;2023-03-09T03:30:50;20.30;;;6.97;;
44102;SDS011;29769;42.178;24.742;2023-03-09T03:33:38;22.67;;;7.68;;
44102;SDS011;29769;42.178;24.742;2023-03-09T03:36:23;29.92;;;9.95;;
44102;SDS011;29769;42.178;24.742;2023-03-09T03:39:09;23.27;;;10.98;;
44102;SDS011;29769;42.178;24.742;2023-03-09T03:41:54;14.32;;;6.88;;
44102;SDS011;29769;42.178;24.742;2023-03-09T03:44:40;12.90;;;6.25;;
44102;SDS011;29769;42.178;24.742;2023-03-09T03:47:26;11.00;;;6.75;;
44102;SDS011;29769;42.178;24.742;2023-03-09T03:50:11;9.23;;;6.38;;
44102;SDS011;29769;42.178;24.742;2023-03-09T03:53:13;11.73;;;6.55;;
44102;SDS011;29769;42.178;24.742;2023-03-09T03:55:58;14.25;;;6.57;;
44102;SDS011;29769;42.178;24.742;2023-03-09T03:58:45;12.40;;;7.50;;
44102;SDS011;29769;42.178;24.742;2023-03-09T04:01:32;8.70;;;5.65;;
44102;SDS011;29769;42.178;24.742;2023-03-09T04:04:22;19.73;;;7.47;;
44102;SDS011;29769;42.178;24.742;2023-03-09T04:07:13;9.45;;;6.65;;
44102;SDS011;29769;42.178;24.742;2023-03-09T04:09:58;12.20;;;7.18;;
44102;SDS011;29769;42.178;24.742;2023-03-09T04:12:43;13.65;;;6.28;;
44102;SDS011;29769;42.178;24.742;2023-03-09T04:15:31;15.73;;;5.88;;
44102;SDS011;29769;42.178;24.742;2023-03-09T04:18:16;11.35;;;6.03;;
44102;SDS011;29769;42.178;24.742;2023-03-09T04:21:01;10.85;;;5.75;;
44102;SDS011;29769;42.178;24.742;2023-03-09T04:23:47;6.55;;;4.68;;
44102;SDS011;29769;42.178;24.742;2023-03-09T04:26:33;6.25;;;4.68;;
44102;SDS011;29769;42.178;24.742;2023-03-09T04:29:24;11.27;;;5.43;;
44102;SDS011;29769;42.178;24.742;2023-03-09T04:32:10;10.57;;;4.80;;
44102;SDS011;29769;42.178;24.742;2023-03-09T04:34:55;16.15;;;4.80;;
44102;SDS011;29769;42.178;24.742;2023-03-09T04:37:41;12.70;;;4.90;;
44102;SDS011;29769;42.178;24.742;2023-03-09T04:40:28;6.72;;;4.10;;
44102;SDS011;29769;42.178;24.742;2023-03-09T04:43:15;11.00;;;4.13;;
44102;SDS011;29769;42.178;24.742;2023-03-09T04:46:01;6.45;;;3.60;;
44102;SDS011;29769;42.178;24.742;2023-03-09T04:48:48;7.55;;;4.07;;
44102;SDS011;29769;42.178;24.742;2023-03-09T04:51:33;9.73;;;3.90;;
44102;SDS011;29769;42.178;24.742;2023-03-09T04:54:21;5.78;;;4.20;;
44102;SDS011;29769;42.178;24.742;2023-03-09T04:57:06;7.40;;;4.50;;
44102;SDS011;29769;42.178;24.742;2023-03-09T04:59:52;9.52;;;5.07;;
44102;SDS011;29769;42.178;24.742;2023-03-09T05:02:37;13.45;;;4.57;;
44102;SDS011;29769;42.178;24.742;2023-03-09T05:05:23;9.60;;;4.10;;
44102;SDS011;29769;42.178;24.742;2023-03-09T05:08:11;7.88;;;3.78;;
44102;SDS011;29769;42.178;24.742;2023-03-09T05:10:56;7.60;;;3.88;;
44102;SDS011;29769;42.178;24.742;2023-03-09T05:16:30;14.60;;;5.15;;
44102;SDS011;29769;42.178;24.742;2023-03-09T05:19:20;10.45;;;4.60;;
44102;SDS011;29769;42.178;24.742;2023-03-09T05:22:07;39.60;;;18.27;;
44102;SDS011;29769;42.178;24.742;2023-03-09T05:24:52;13.50;;;6.78;;
44102;SDS011;29769;42.178;24.742;2023-03-09T05:27:37;12.30;;;7.85;;
44102;SDS011;29769;42.178;24.742;2023-03-09T05:30:23;14.68;;;6.22;;
44102;SDS011;29769;42.178;24.742;2023-03-09T05:33:08;13.23;;;6.20;;
44102;SDS011;29769;42.178;24.742;2023-03-09T05:35:56;12.20;;;5.85;;
44102;SDS011;29769;42.178;24.742;2023-03-09T05:38:42;13.80;;;5.95;;
44102;SDS011;29769;42.178;24.742;2023-03-09T05:41:27;15.73;;;6.75;;
44102;SDS011;29769;42.178;24.742;2023-03-09T05:44:18;16.15;;;6.25;;
44102;SDS011;29769;42.178;24.742;2023-03-09T05:47:03;24.05;;;7.95;;
44102;SDS011;29769;42.178;24.742;2023-03-09T05:49:48;14.95;;;8.35;;
44102;SDS011;29769;42.178;24.742;2023-03-09T05:52:36;30.02;;;9.57;;
44102;SDS011;29769;42.178;24.742;2023-03-09T05:55:22;35.97;;;10.77;;
44102;SDS011;29769;42.178;24.742;2023-03-09T05:58:08;30.35;;;6.72;;
44102;SDS011;29769;42.178;24.742;2023-03-09T06:03:38;23.83;;;10.68;;
44102;SDS011;29769;42.178;24.742;2023-03-09T06:06:23;27.85;;;8.68;;
44102;SDS011;29769;42.178;24.742;2023-03-09T06:09:09;23.73;;;7.63;;
44102;SDS011;29769;42.178;24.742;2023-03-09T06:11:55;12.40;;;6.95;;
44102;SDS011;29769;42.178;24.742;2023-03-09T06:14:40;51.55;;;8.20;;
44102;SDS011;29769;42.178;24.742;2023-03-09T06:17:27;24.15;;;8.13;;
44102;SDS011;29769;42.178;24.742;2023-03-09T06:20:12;27.50;;;6.15;;
44102;SDS011;29769;42.178;24.742;2023-03-09T06:23:02;17.55;;;6.20;;
44102;SDS011;29769;42.178;24.742;2023-03-09T06:25:48;12.15;;;6.00;;
44102;SDS011;29769;42.178;24.742;2023-03-09T06:28:33;37.95;;;7.93;;
44102;SDS011;29769;42.178;24.742;2023-03-09T06:31:19;35.08;;;6.20;;
44102;SDS011;29769;42.178;24.742;2023-03-09T06:34:07;11.70;;;5.85;;
44102;SDS011;29769;42.178;24.742;2023-03-09T06:36:51;49.75;;;8.02;;
44102;SDS011;29769;42.178;24.742;2023-03-09T06:42:21;19.70;;;5.43;;
44102;SDS011;29769;42.178;24.742;2023-03-09T06:45:09;15.30;;;5.63;;
44102;SDS011;29769;42.178;24.742;2023-03-09T06:47:55;16.80;;;5.32;;
44102;SDS011;29769;42.178;24.742;2023-03-09T06:50:43;8.90;;;4.90;;
44102;SDS011;29769;42.178;24.742;2023-03-09T06:53:29;19.83;;;5.53;;
44102;SDS011;29769;42.178;24.742;2023-03-09T06:56:21;16.70;;;5.57;;
44102;SDS011;29769;42.178;24.742;2023-03-09T06:59:05;24.40;;;5.75;;
44102;SDS011;29769;42.178;24.742;2023-03-09T07:01:51;38.10;;;6.30;;
44102;SDS011;29769;42.178;24.742;2023-03-09T07:04:36;15.23;;;5.18;;
44102;SDS011;29769;42.178;24.742;2023-03-09T07:07:21;33.38;;;7.60;;
44102;SDS011;29769;42.178;24.742;2023-03-09T07:12:52;192.65;;;16.80;;
44102;SDS011;29769;42.178;24.742;2023-03-09T07:15:36;38.80;;;7.18;;
44102;SDS011;29769;42.178;24.742;2023-03-09T07:18:21;7.78;;;4.72;;
44102;SDS011;29769;42.178;24.742;2023-03-09T07:21:06;14.70;;;4.47;;
44102;SDS011;29769;42.178;24.742;2023-03-09T07:23:53;33.13;;;6.72;;
44102;SDS011;29769;42.178;24.742;2023-03-09T07:26:38;12.52;;;5.28;;
44102;SDS011;29769;42.178;24.742;2023-03-09T07:29:23;20.27;;;5.32;;
44102;SDS011;29769;42.178;24.742;2023-03-09T07:32:08;31.90;;;12.15;;
44102;SDS011;29769;42.178;24.742;2023-03-09T07:34:53;28.27;;;5.82;;
44102;SDS011;29769;42.178;24.742;2023-03-09T07:37:38;14.30;;;4.97;;
44102;SDS011;29769;42.178;24.742;2023-03-09T07:40:23;14.20;;;4.68;;
44102;SDS011;29769;42.178;24.742;2023-03-09T07:43:09;20.05;;;5.22;;
44102;SDS011;29769;42.178;24.742;2023-03-09T07:46:04;10.93;;;3.92;;
44102;SDS011;29769;42.178;24.742;2023-03-09T07:48:49;8.85;;;3.60;;
44102;SDS011;29769;42.178;24.742;2023-03-09T07:51:34;15.80;;;4.45;;
44102;SDS011;29769;42.178;24.742;2023-03-09T07:54:21;17.52;;;4.53;;
44102;SDS011;29769;42.178;24.742;2023-03-09T07:57:06;6.15;;;4.07;;
44102;SDS011;29769;42.178;24.742;2023-03-09T08:02:39;12.85;;;4.28;;
44102;SDS011;29769;42.178;24.742;2023-03-09T08:05:25;10.65;;;4.20;;
44102;SDS011;29769;42.178;24.742;2023-03-09T08:08:10;35.70;;;5.55;;
44102;SDS011;29769;42.178;24.742;2023-03-09T08:10:56;18.88;;;2.90;;
44102;SDS011;29769;42.178;24.742;2023-03-09T08:13:41;8.15;;;3.13;;
44102;SDS011;29769;42.178;24.742;2023-03-09T08:16:26;4.22;;;2.58;;
44102;SDS011;29769;42.178;24.742;2023-03-09T08:19:11;5.93;;;2.15;;
44102;SDS011;29769;42.178;24.742;2023-03-09T08:21:56;2.40;;;2.13;;
44102;SDS011;29769;42.178;24.742;2023-03-09T08:24:41;11.45;;;3.70;;
44102;SDS011;29769;42.178;24.742;2023-03-09T08:27:26;16.52;;;3.72;;
44102;SDS011;29769;42.178;24.742;2023-03-09T08:30:11;8.13;;;3.78;;
44102;SDS011;29769;42.178;24.742;2023-03-09T08:32:57;16.55;;;4.95;;
44102;SDS011;29769;42.178;24.742;2023-03-09T08:35:42;7.18;;;3.30;;
44102;SDS011;29769;42.178;24.742;2023-03-09T08:38:27;9.68;;;3.80;;
44102;SDS011;29769;42.178;24.742;2023-03-09T08:41:12;15.20;;;4.22;;
44102;SDS011;29769;42.178;24.742;2023-03-09T08:43:57;18.75;;;4.93;;
44102;SDS011;29769;42.178;24.742;2023-03-09T08:46:42;14.88;;;4.03;;
44102;SDS011;29769;42.178;24.742;2023-03-09T08:49:27;15.00;;;4.45;;
44102;SDS011;29769;42.178;24.742;2023-03-09T08:52:12;6.15;;;3.38;;
44102;SDS011;29769;42.178;24.742;2023-03-09T08:54:57;12.80;;;3.53;;
44102;SDS011;29769;42.178;24.742;2023-03-09T08:57:42;4.00;;;2.72;;
44102;SDS011;29769;42.178;24.742;2023-03-09T09:00:27;12.60;;;3.45;;
44102;SDS011;29769;42.178;24.742;2023-03-09T09:03:12;19.85;;;4.05;;
44102;SDS011;29769;42.178;24.742;2023-03-09T09:06:08;11.93;;;3.50;;
44102;SDS011;29769;42.178;24.742;2023-03-09T09:08:58;14.80;;;3.70;;
44102;SDS011;29769;42.178;24.742;2023-03-09T09:11:43;18.10;;;4.38;;
44102;SDS011;29769;42.178;24.742;2023-03-09T09:14:28;8.45;;;3.13;;
44102;SDS011;29769;42.178;24.742;2023-03-09T09:17:13;5.28;;;3.10;;
44102;SDS011;29769;42.178;24.742;2023-03-09T09:19:58;7.80;;;3.22;;
44102;SDS011;29769;42.178;24.742;2023-03-09T09:22:43;8.85;;;3.28;;
44102;SDS011;29769;42.178;24.742;2023-03-09T09:28:12;12.80;;;3.83;;
44102;SDS011;29769;42.178;24.742;2023-03-09T09:30:58;13.27;;;3.47;;
44102;SDS011;29769;42.178;24.742;2023-03-09T09:33:44;13.45;;;3.80;;
44102;SDS011;29769;42.178;24.742;2023-03-09T09:36:29;8.60;;;3.47;;
44102;SDS011;29769;42.178;24.742;2023-03-09T09:39:14;6.57;;;2.80;;
44102;SDS011;29769;42.178;24.742;2023-03-09T09:42:06;25.50;;;4.38;;
44102;SDS011;29769;42.178;24.742;2023-03-09T09:45:03;3.40;;;2.70;;
44102;SDS011;29769;42.178;24.742;2023-03-09T09:47:50;5.63;;;2.80;;
44102;SDS011;29769;42.178;24.742;2023-03-09T09:53:54;14.65;;;4.32;;
44102;SDS011;29769;42.178;24.742;2023-03-09T09:59:39;6.85;;;3.63;;
44102;SDS011;29769;42.178;24.742;2023-03-09T10:05:28;6.90;;;3.13;;
44102;SDS011;29769;42.178;24.742;2023-03-09T10:14:26;7.80;;;3.05;;
44102;SDS011;29769;42.178;24.742;2023-03-09T10:17:18;5.30;;;2.15;;
44102;SDS011;29769;42.178;24.742;2023-03-09T10:22:58;10.07;;;3.42;;
44102;SDS011;29769;42.178;24.742;2023-03-09T10:25:43;6.78;;;2.00;;
44102;SDS011;29769;42.178;24.742;2023-03-09T10:28:31;7.15;;;2.55;;
44102;SDS011;29769;42.178;24.742;2023-03-09T10:31:22;7.03;;;2.63;;
44102;SDS011;29769;42.178;24.742;2023-03-09T10:34:25;4.53;;;2.30;;
44102;SDS011;29769;42.178;24.742;2023-03-09T10:37:12;14.68;;;2.72;;
44102;SDS011;29769;42.178;24.742;2023-03-09T10:40:02;10.68;;;2.75;;
44102;SDS011;29769;42.178;24.742;2023-03-09T10:42:51;7.85;;;2.50;;
44102;SDS011;29769;42.178;24.742;2023-03-09T10:45:36;3.40;;;2.03;;
44102;SDS011;29769;42.178;24.742;2023-03-09T10:48:22;5.07;;;2.78;;
44102;SDS011;29769;42.178;24.742;2023-03-09T10:51:53;3.42;;;2.30;;
44102;SDS011;29769;42.178;24.742;2023-03-09T10:54:24;17.40;;;3.22;;
44102;SDS011;29769;42.178;24.742;2023-03-09T10:57:25;10.10;;;2.80;;
44102;SDS011;29769;42.178;24.742;2023-03-09T11:00:13;28.60;;;4.05;;
44102;SDS011;29769;42.178;24.742;2023-03-09T11:02:59;3.72;;;2.45;;
44102;SDS011;29769;42.178;24.742;2023-03-09T11:05:44;15.85;;;2.50;;
44102;SDS011;29769;42.178;24.742;2023-03-09T11:08:29;6.25;;;2.60;;
44102;SDS011;29769;42.178;24.742;2023-03-09T11:11:16;4.75;;;2.67;;
44102;SDS011;29769;42.178;24.742;2023-03-09T11:14:04;6.95;;;3.42;;
44102;SDS011;29769;42.178;24.742;2023-03-09T11:16:50;5.72;;;2.42;;
44102;SDS011;29769;42.178;24.742;2023-03-09T11:19:37;6.93;;;2.90;;
44102;SDS011;29769;42.178;24.742;2023-03-09T11:22:22;6.90;;;3.05;;
44102;SDS011;29769;42.178;24.742;2023-03-09T11:25:13;15.38;;;3.20;;
44102;SDS011;29769;42.178;24.742;2023-03-09T11:28:14;9.05;;;2.65;;
44102;SDS011;29769;42.178;24.742;2023-03-09T11:31:10;5.05;;;2.33;;
44102;SDS011;29769;42.178;24.742;2023-03-09T11:33:57;9.35;;;2.63;;
44102;SDS011;29769;42.178;24.742;2023-03-09T11:36:47;5.78;;;2.00;;
44102;SDS011;29769;42.178;24.742;2023-03-09T11:45:47;5.90;;;3.00;;
44102;SDS011;29769;42.178;24.742;2023-03-09T11:48:36;11.00;;;3.10;;
44102;SDS011;29769;42.178;24.742;2023-03-09T11:51:27;15.18;;;2.78;;
44102;SDS011;29769;42.178;24.742;2023-03-09T11:54:17;12.23;;;2.92;;
44102;SDS011;29769;42.178;24.742;2023-03-09T11:57:10;9.07;;;3.30;;
44102;SDS011;29769;42.178;24.742;2023-03-09T11:59:59;8.32;;;3.67;;
44102;SDS011;29769;42.178;24.742;2023-03-09T12:02:58;10.43;;;4.15;;
44102;SDS011;29769;42.178;24.742;2023-03-09T12:05:48;11.88;;;3.42;;
44102;SDS011;29769;42.178;24.742;2023-03-09T12:08:39;19.85;;;3.90;;
44102;SDS011;29769;42.178;24.742;2023-03-09T12:14:41;18.90;;;3.47;;
44102;SDS011;29769;42.178;24.742;2023-03-09T12:17:35;3.70;;;2.65;;
44102;SDS011;29769;42.178;24.742;2023-03-09T12:20:29;10.03;;;3.07;;
44102;SDS011;29769;42.178;24.742;2023-03-09T12:35:07;7.32;;;3.17;;
44102;SDS011;29769;42.178;24.742;2023-03-09T12:40:44;5.70;;;2.35;;
44102;SDS011;29769;42.178;24.742;2023-03-09T12:43:33;4.20;;;2.45;;
44102;SDS011;29769;42.178;24.742;2023-03-09T12:46:37;8.30;;;2.50;;
44102;SDS011;29769;42.178;24.742;2023-03-09T12:49:42;3.40;;;2.40;;
44102;SDS011;29769;42.178;24.742;2023-03-09T12:52:53;7.75;;;2.92;;
44102;SDS011;29769;42.178;24.742;2023-03-09T12:55:46;7.75;;;3.22;;
44102;SDS011;29769;42.178;24.742;2023-03-09T12:58:38;9.32;;;2.88;;
44102;SDS011;29769;42.178;24.742;2023-03-09T13:01:27;7.30;;;2.67;;
44102;SDS011;29769;42.178;24.742;2023-03-09T13:04:17;6.78;;;2.72;;
44102;SDS011;29769;42.178;24.742;2023-03-09T13:07:13;3.83;;;2.08;;
44102;SDS011;29769;42.178;24.742;2023-03-09T13:10:03;4.10;;;2.50;;
44102;SDS011;29769;42.178;24.742;2023-03-09T13:12:53;4.75;;;2.70;;
44102;SDS011;29769;42.178;24.742;2023-03-09T13:15:39;10.93;;;2.55;;
44102;SDS011;29769;42.178;24.742;2023-03-09T13:18:24;11.57;;;2.90;;
44102;SDS011;29769;42.178;24.742;2023-03-09T13:24:41;9.48;;;2.60;;
44102;SDS011;29769;42.178;24.742;2023-03-09T13:27:27;3.80;;;2.35;;
44102;SDS011;29769;42.178;24.742;2023-03-09T13:30:21;6.22;;;2.70;;
44102;SDS011;29769;42.178;24.742;2023-03-09T13:33:15;3.25;;;2.10;;
44102;SDS011;29769;42.178;24.742;2023-03-09T13:36:05;4.47;;;1.77;;
44102;SDS011;29769;42.178;24.742;2023-03-09T13:38:57;7.22;;;2.10;;
44102;SDS011;29769;42.178;24.742;2023-03-09T13:41:49;5.82;;;2.20;;
44102;SDS011;29769;42.178;24.742;2023-03-09T13:44:45;13.20;;;2.80;;
44102;SDS011;29769;42.178;24.742;2023-03-09T13:47:31;7.32;;;2.30;;
44102;SDS011;29769;42.178;24.742;2023-03-09T13:50:19;6.47;;;2.50;;
44102;SDS011;29769;42.178;24.742;2023-03-09T13:53:06;3.95;;;2.40;;
44102;SDS011;29769;42.178;24.742;2023-03-09T13:56:12;2.33;;;1.60;;
44102;SDS011;29769;42.178;24.742;2023-03-09T13:58:58;4.35;;;2.17;;
44102;SDS011;29769;42.178;24.742;2023-03-09T14:01:43;5.68;;;1.75;;
44102;SDS011;29769;42.178;24.742;2023-03-09T14:04:29;2.92;;;1.75;;
44102;SDS011;29769;42.178;24.742;2023-03-09T14:07:14;2.05;;;1.88;;
44102;SDS011;29769;42.178;24.742;2023-03-09T14:10:03;13.23;;;2.28;;
44102;SDS011;29769;42.178;24.742;2023-03-09T14:13:37;9.02;;;2.22;;
44102;SDS011;29769;42.178;24.742;2023-03-09T14:16:02;3.65;;;1.73;;
44102;SDS011;29769;42.178;24.742;2023-03-09T14:18:51;2.22;;;1.70;;
44102;SDS011;29769;42.178;24.742;2023-03-09T14:21:38;3.92;;;1.70;;
44102;SDS011;29769;42.178;24.742;2023-03-09T14:24:24;2.72;;;1.60;;
44102;SDS011;29769;42.178;24.742;2023-03-09T14:36:16;2.65;;;1.85;;
44102;SDS011;29769;42.178;24.742;2023-03-09T14:39:23;4.40;;;1.90;;
44102;SDS011;29769;42.178;24.742;2023-03-09T14:42:15;7.72;;;1.67;;
44102;SDS011;29769;42.178;24.742;2023-03-09T14:47:59;4.03;;;1.88;;
44102;SDS011;29769;42.178;24.742;2023-03-09T14:50:45;2.33;;;1.67;;
44102;SDS011;29769;42.178;24.742;2023-03-09T14:53:30;8.45;;;1.90;;
44102;SDS011;29769;42.178;24.742;2023-03-09T14:56:15;2.28;;;1.27;;
44102;SDS011;29769;42.178;24.742;2023-03-09T14:59:00;2.00;;;1.40;;
44102;SDS011;29769;42.178;24.742;2023-03-09T15:01:54;4.60;;;1.42;;
44102;SDS011;29769;42.178;24.742;2023-03-09T15:04:43;1.83;;;1.25;;
44102;SDS011;29769;42.178;24.742;2023-03-09T15:07:29;2.17;;;1.30;;
44102;SDS011;29769;42.178;24.742;2023-03-09T15:10:15;5.30;;;1.20;;
44102;SDS011;29769;42.178;24.742;2023-03-09T15:13:00;6.00;;;1.80;;
44102;SDS011;29769;42.178;24.742;2023-03-09T15:15:46;27.88;;;2.70;;
44102;SDS011;29769;42.178;24.742;2023-03-09T15:18:31;1.77;;;1.20;;
44102;SDS011;29769;42.178;24.742;2023-03-09T15:21:16;1.00;;;1.00;;
44102;SDS011;29769;42.178;24.742;2023-03-09T15:24:00;2.00;;;1.38;;
44102;SDS011;29769;42.178;24.742;2023-03-09T15:26:46;8.10;;;1.90;;
44102;SDS011;29769;42.178;24.742;2023-03-09T15:29:30;2.20;;;1.25;;
44102;SDS011;29769;42.178;24.742;2023-03-09T15:32:15;1.77;;;1.35;;
44102;SDS011;29769;42.178;24.742;2023-03-09T15:35:00;2.63;;;1.98;;
44102;SDS011;29769;42.178;24.742;2023-03-09T15:37:45;7.05;;;1.83;;
44102;SDS011;29769;42.178;24.742;2023-03-09T15:40:31;2.05;;;1.52;;
44102;SDS011;29769;42.178;24.742;2023-03-09T15:43:16;6.97;;;1.88;;
44102;SDS011;29769;42.178;24.742;2023-03-09T15:46:02;3.53;;;2.22;;
44102;SDS011;29769;42.178;24.742;2023-03-09T15:48:48;3.28;;;1.83;;
44102;SDS011;29769;42.178;24.742;2023-03-09T15:51:33;3.03;;;1.50;;
44102;SDS011;29769;42.178;24.742;2023-03-09T15:54:19;2.90;;;1.95;;
44102;SDS011;29769;42.178;24.742;2023-03-09T15:57:04;2.67;;;1.83;;
44102;SDS011;29769;42.178;24.742;2023-03-09T16:02:36;7.05;;;2.38;;
44102;SDS011;29769;42.178;24.742;2023-03-09T16:05:21;7.22;;;2.72;;
44102;SDS011;29769;42.178;24.742;2023-03-09T16:08:06;11.32;;;5.30;;
44102;SDS011;29769;42.178;24.742;2023-03-09T16:13:36;2.17;;;1.55;;
44102;SDS011;29769;42.178;24.742;2023-03-09T16:16:21;6.07;;;2.05;;
44102;SDS011;29769;42.178;24.742;2023-03-09T16:19:06;6.78;;;1.95;;
44102;SDS011;29769;42.178;24.742;2023-03-09T16:21:51;7.88;;;1.85;;
44102;SDS011;29769;42.178;24.742;2023-03-09T16:30:06;16.85;;;2.42;;
44102;SDS011;29769;42.178;24.742;2023-03-09T16:32:52;11.35;;;2.35;;
44102;SDS011;29769;42.178;24.742;2023-03-09T16:35:37;13.25;;;3.10;;
44102;SDS011;29769;42.178;24.742;2023-03-09T16:38:22;7.25;;;2.88;;
44102;SDS011;29769;42.178;24.742;2023-03-09T16:41:09;13.13;;;4.22;;
44102;SDS011;29769;42.178;24.742;2023-03-09T16:43:55;8.82;;;3.50;;
44102;SDS011;29769;42.178;24.742;2023-03-09T16:49:24;9.23;;;3.80;;
44102;SDS011;29769;42.178;24.742;2023-03-09T16:54:55;5.60;;;3.50;;
44102;SDS011;29769;42.178;24.742;2023-03-09T16:57:41;11.30;;;3.65;;
44102;SDS011;29769;42.178;24.742;2023-03-09T17:00:27;12.10;;;4.60;;
44102;SDS011;29769;42.178;24.742;2023-03-09T17:03:12;12.48;;;3.58;;
44102;SDS011;29769;42.178;24.742;2023-03-09T17:05:57;7.50;;;3.58;;
44102;SDS011;29769;42.178;24.742;2023-03-09T17:11:26;7.97;;;4.25;;
44102;SDS011;29769;42.178;24.742;2023-03-09T17:14:12;13.65;;;4.50;;
44102;SDS011;29769;42.178;24.742;2023-03-09T17:17:00;9.85;;;4.03;;
44102;SDS011;29769;42.178;24.742;2023-03-09T17:19:45;13.52;;;4.88;;
44102;SDS011;29769;42.178;24.742;2023-03-09T17:22:30;17.52;;;7.30;;
44102;SDS011;29769;42.178;24.742;2023-03-09T17:25:17;9.63;;;5.68;;
44102;SDS011;29769;42.178;24.742;2023-03-09T17:28:03;10.88;;;3.67;;
44102;SDS011;29769;42.178;24.742;2023-03-09T17:30:48;11.15;;;4.18;;
44102;SDS011;29769;42.178;24.742;2023-03-09T17:33:33;15.05;;;4.70;;
44102;SDS011;29769;42.178;24.742;2023-03-09T17:36:18;8.40;;;3.47;;
44102;SDS011;29769;42.178;24.742;2023-03-09T17:39:06;15.20;;;3.25;;
44102;SDS011;29769;42.178;24.742;2023-03-09T17:41:51;8.02;;;3.22;;
44102;SDS011;29769;42.178;24.742;2023-03-09T17:47:22;13.50;;;4.88;;
44102;SDS011;29769;42.178;24.742;2023-03-09T17:50:07;15.60;;;5.30;;
44102;SDS011;29769;42.178;24.742;2023-03-09T17:52:52;11.05;;;5.05;;
44102;SDS011;29769;42.178;24.742;2023-03-09T17:55:38;22.60;;;7.28;;
44102;SDS011;29769;42.178;24.742;2023-03-09T17:58:25;17.70;;;5.90;;
44102;SDS011;29769;42.178;24.742;2023-03-09T18:01:12;12.18;;;5.53;;
44102;SDS011;29769;42.178;24.742;2023-03-09T18:04:05;13.02;;;6.15;;
44102;SDS011;29769;42.178;24.742;2023-03-09T18:06:50;14.80;;;5.90;;
44102;SDS011;29769;42.178;24.742;2023-03-09T18:09:35;10.57;;;5.65;;
44102;SDS011;29769;42.178;24.742;2023-03-09T18:12:20;9.68;;;5.45;;
44102;SDS011;29769;42.178;24.742;2023-03-09T18:15:05;6.75;;;4.55;;
44102;SDS011;29769;42.178;24.742;2023-03-09T18:17:50;17.83;;;4.53;;
44102;SDS011;29769;42.178;24.742;2023-03-09T18:20:35;5.75;;;4.15;;